Time;durP1;ratioP1;P1;durP2;ratioP2;P2;SDS_P1;SDS_P2;PMS_P1;PMS_P2;Temp;Humidity;BMP_temperature;BMP_pressure;BME280_temperature;BME280_humidity;BME280_pressure;Samples;Min_cycle;Max_cycle;Signal;HPM_P1;HPM_P2
2021/07/25 00:02:25;;;;;;;8.68;2.17;;;;;;;;;;5052284;28;20028;-70
2021/07/25 00:04:51;;;;;;;13.00;3.75;;;;;;;;;;5051930;28;20040;-70
2021/07/25 00:07:18;;;;;;;13.15;3.20;;;;;;;;;;5046606;28;20025;-70
2021/07/25 00:09:45;;;;;;;7.25;2.28;;;;;;;;;;5046648;28;20029;-70
2021/07/25 00:12:12;;;;;;;12.23;2.47;;;;;;;;;;5042166;28;20033;-70
2021/07/25 00:14:39;;;;;;;16.48;2.85;;;;;;;;;;5026935;28;20028;-70
2021/07/25 00:17:06;;;;;;;9.07;2.22;;;;;;;;;;5031163;28;20503;-70
2021/07/25 00:19:33;;;;;;;8.13;2.10;;;;;;;;;;5031987;28;20029;-70
2021/07/25 00:22:00;;;;;;;6.68;2.92;;;;;;;;;;5032347;28;20022;-70
2021/07/25 00:24:32;;;;;;;8.35;2.15;;;;;;;;;;5031943;28;20033;-70
2021/07/25 00:27:00;;;;;;;7.20;2.00;;;;;;;;;;5038967;28;20378;-70
2021/07/25 00:29:30;;;;;;;9.30;2.50;;;;;;;;;;5047812;28;20110;-71
2021/07/25 00:32:04;;;;;;;8.70;1.80;;;;;;;;;;5046965;28;20061;-70
2021/07/25 00:34:32;;;;;;;6.35;2.03;;;;;;;;;;5046519;28;20171;-70
2021/07/25 00:37:00;;;;;;;8.67;2.37;;;;;;;;;;5046789;28;20063;-70
2021/07/25 00:39:27;;;;;;;10.10;2.03;;;;;;;;;;5050200;28;20103;-70
2021/07/25 00:41:54;;;;;;;8.07;2.07;;;;;;;;;;5040674;28;20029;-70
2021/07/25 00:44:20;;;;;;;12.03;2.50;;;;;;;;;;5045774;28;20106;-71
2021/07/25 00:46:49;;;;;;;10.00;1.90;;;;;;;;;;5051852;28;20490;-73
2021/07/25 00:49:16;;;;;;;8.63;2.10;;;;;;;;;;5051661;28;20124;-72
2021/07/25 00:51:44;;;;;;;11.27;2.17;;;;;;;;;;5047839;28;20174;-72
2021/07/25 00:54:11;;;;;;;12.37;2.17;;;;;;;;;;5046387;28;20391;-72
2021/07/25 00:56:38;;;;;;;12.77;2.80;;;;;;;;;;5033174;28;20033;-72
2021/07/25 00:59:05;;;;;;;8.07;2.30;;;;;;;;;;5046429;28;20114;-72
2021/07/25 01:01:32;;;;;;;8.53;2.40;;;;;;;;;;5049786;28;20531;-71
2021/07/25 01:04:19;;;;;;;18.17;2.60;;;;;;;;;;5038401;28;20038;-72
2021/07/25 01:06:58;;;;;;;9.03;2.57;;;;;;;;;;5031820;28;20029;-70
2021/07/25 01:09:57;;;;;;;8.70;2.03;;;;;;;;;;5031731;28;20026;-72
2021/07/25 01:12:27;;;;;;;5.07;1.90;;;;;;;;;;4979140;28;20132;-72
2021/07/25 01:14:54;;;;;;;7.93;2.10;;;;;;;;;;5030137;28;20063;-72
2021/07/25 01:17:25;;;;;;;6.07;2.23;;;;;;;;;;5044737;28;20029;-72
2021/07/25 01:19:51;;;;;;;4.67;1.50;;;;;;;;;;5049200;28;20040;-71
2021/07/25 01:22:18;;;;;;;12.57;2.20;;;;;;;;;;5049899;28;20021;-72
2021/07/25 01:24:45;;;;;;;6.47;1.57;;;;;;;;;;5054412;28;20044;-72
2021/07/25 01:27:16;;;;;;;8.70;1.70;;;;;;;;;;5054769;28;20029;-72
2021/07/25 01:29:43;;;;;;;6.07;1.60;;;;;;;;;;5048247;28;20048;-72
2021/07/25 01:32:11;;;;;;;9.10;1.60;;;;;;;;;;5035204;28;20440;-71
2021/07/25 01:34:38;;;;;;;8.73;1.63;;;;;;;;;;5044561;28;20039;-72
2021/07/25 01:37:05;;;;;;;10.80;1.90;;;;;;;;;;5050129;28;20454;-72
2021/07/25 01:39:32;;;;;;;7.17;1.57;;;;;;;;;;5047832;28;20056;-72
2021/07/25 01:41:59;;;;;;;14.43;1.90;;;;;;;;;;5049192;28;20090;-72
2021/07/25 01:44:26;;;;;;;7.40;2.37;;;;;;;;;;5038068;28;20045;-72
2021/07/25 01:46:52;;;;;;;7.33;2.20;;;;;;;;;;5033989;28;20079;-71
2021/07/25 01:49:19;;;;;;;17.57;2.17;;;;;;;;;;5041722;28;20021;-72
2021/07/25 01:51:46;;;;;;;11.90;1.53;;;;;;;;;;5054840;28;20075;-72
2021/07/25 01:54:13;;;;;;;12.77;1.83;;;;;;;;;;5054539;28;20033;-71
2021/07/25 01:56:39;;;;;;;15.63;1.70;;;;;;;;;;5054336;28;20021;-72
2021/07/25 01:59:06;;;;;;;8.37;1.50;;;;;;;;;;5049912;28;20079;-72
2021/07/25 02:01:33;;;;;;;3.97;0.90;;;;;;;;;;5034148;28;20041;-72
2021/07/25 02:04:00;;;;;;;5.93;1.60;;;;;;;;;;5029386;28;20091;-72
2021/07/25 02:06:26;;;;;;;3.43;1.57;;;;;;;;;;5034597;28;20028;-71
2021/07/25 02:08:53;;;;;;;10.03;1.83;;;;;;;;;;5012848;28;20018;-71
2021/07/25 02:11:20;;;;;;;6.07;1.67;;;;;;;;;;5026655;28;20068;-71
2021/07/25 02:13:47;;;;;;;4.67;1.17;;;;;;;;;;5034114;28;20033;-72
2021/07/25 02:16:14;;;;;;;3.83;0.90;;;;;;;;;;5034571;28;20025;-72
2021/07/25 02:18:40;;;;;;;5.77;1.20;;;;;;;;;;5035395;28;20451;-71
2021/07/25 02:21:07;;;;;;;3.77;1.10;;;;;;;;;;5031023;28;20021;-71
2021/07/25 02:23:34;;;;;;;5.03;1.57;;;;;;;;;;5037759;28;20036;-71
2021/07/25 02:26:00;;;;;;;14.20;3.47;;;;;;;;;;5049130;28;20036;-71
2021/07/25 02:28:27;;;;;;;16.67;3.80;;;;;;;;;;5046812;28;20043;-71
2021/07/25 02:30:54;;;;;;;13.60;3.60;;;;;;;;;;5045782;28;20068;-71
2021/07/25 02:33:21;;;;;;;10.10;3.70;;;;;;;;;;5033872;28;20022;-71
2021/07/25 02:35:47;;;;;;;12.50;3.67;;;;;;;;;;5034011;28;20032;-71
2021/07/25 02:38:14;;;;;;;8.50;2.33;;;;;;;;;;5033989;28;20046;-69
2021/07/25 02:40:41;;;;;;;5.80;2.13;;;;;;;;;;5034811;28;20033;-69
2021/07/25 02:43:08;;;;;;;5.47;1.87;;;;;;;;;;5031434;28;20030;-69
2021/07/25 02:45:34;;;;;;;18.63;3.73;;;;;;;;;;5033334;28;20027;-69
2021/07/25 02:48:01;;;;;;;17.17;3.93;;;;;;;;;;5040352;28;20067;-69
2021/07/25 02:50:28;;;;;;;15.97;4.50;;;;;;;;;;5024802;28;20033;-71
2021/07/25 02:52:55;;;;;;;15.83;3.97;;;;;;;;;;5025203;28;20029;-69
2021/07/25 02:55:21;;;;;;;14.07;4.03;;;;;;;;;;5033123;28;20689;-70
2021/07/25 02:57:48;;;;;;;13.10;4.27;;;;;;;;;;5030974;28;20025;-67
2021/07/25 03:00:15;;;;;;;16.47;3.97;;;;;;;;;;5032902;28;20033;-68
2021/07/25 03:02:42;;;;;;;10.97;3.13;;;;;;;;;;5052918;28;20430;-67
2021/07/25 03:05:09;;;;;;;16.00;3.57;;;;;;;;;;5044678;28;20033;-67
2021/07/25 03:07:36;;;;;;;8.33;3.23;;;;;;;;;;5015682;28;20028;-68
2021/07/25 03:10:03;;;;;;;9.60;3.00;;;;;;;;;;5034270;28;20025;-67
2021/07/25 03:12:30;;;;;;;12.80;3.00;;;;;;;;;;5047817;28;20108;-66
2021/07/25 03:14:57;;;;;;;9.60;2.30;;;;;;;;;;5048745;28;20115;-67
2021/07/25 03:17:24;;;;;;;13.73;3.27;;;;;;;;;;5051732;28;20029;-68
2021/07/25 03:19:50;;;;;;;12.30;2.30;;;;;;;;;;5046347;28;20420;-68
2021/07/25 03:22:17;;;;;;;11.00;2.57;;;;;;;;;;5031164;28;20028;-68
2021/07/25 03:24:44;;;;;;;8.60;2.80;;;;;;;;;;5040850;28;20112;-68
2021/07/25 03:27:11;;;;;;;16.00;3.37;;;;;;;;;;5049424;28;20041;-68
2021/07/25 03:29:38;;;;;;;11.90;3.30;;;;;;;;;;5034552;28;20065;-68
2021/07/25 03:32:05;;;;;;;9.00;2.57;;;;;;;;;;5008922;28;20467;-68
2021/07/25 03:34:33;;;;;;;20.63;3.73;;;;;;;;;;5044084;28;20380;-68
2021/07/25 03:37:03;;;;;;;10.77;2.87;;;;;;;;;;5041604;28;20017;-68
2021/07/25 03:39:31;;;;;;;23.40;3.30;;;;;;;;;;5039003;28;20028;-71
2021/07/25 03:41:58;;;;;;;9.77;2.70;;;;;;;;;;5044029;28;20025;-70
2021/07/25 03:44:25;;;;;;;8.07;2.03;;;;;;;;;;5034542;28;20037;-70
2021/07/25 03:46:52;;;;;;;7.80;1.87;;;;;;;;;;5032627;28;20087;-70
2021/07/25 03:49:18;;;;;;;7.50;1.93;;;;;;;;;;5032203;28;20022;-70
2021/07/25 03:51:45;;;;;;;5.93;2.20;;;;;;;;;;5027336;28;20021;-70
2021/07/25 03:54:12;;;;;;;11.17;2.30;;;;;;;;;;5031191;28;20077;-70
2021/07/25 03:56:39;;;;;;;8.40;3.10;;;;;;;;;;5047246;28;20036;-70
2021/07/25 03:59:06;;;;;;;4.33;1.80;;;;;;;;;;5046025;28;20071;-70
2021/07/25 04:01:33;;;;;;;9.53;2.00;;;;;;;;;;5035265;28;20033;-71
2021/07/25 04:03:59;;;;;;;4.40;1.77;;;;;;;;;;5036211;28;20029;-70
2021/07/25 04:06:26;;;;;;;4.20;1.97;;;;;;;;;;5051693;28;20060;-71
2021/07/25 04:08:53;;;;;;;6.30;1.67;;;;;;;;;;5051996;28;20037;-71
2021/07/25 04:11:20;;;;;;;6.43;2.00;;;;;;;;;;5051109;28;20040;-70
2021/07/25 04:13:48;;;;;;;5.60;2.10;;;;;;;;;;5047575;28;20088;-70
2021/07/25 04:16:15;;;;;;;11.63;4.00;;;;;;;;;;5028168;28;20049;-70
2021/07/25 04:18:41;;;;;;;12.40;4.50;;;;;;;;;;5026943;28;20555;-68
2021/07/25 04:21:08;;;;;;;13.27;3.20;;;;;;;;;;5027166;28;20029;-68
2021/07/25 04:23:35;;;;;;;16.50;3.77;;;;;;;;;;5030832;28;20388;-68
2021/07/25 04:26:05;;;;;;;13.03;3.90;;;;;;;;;;5032421;28;20044;-68
2021/07/25 04:28:32;;;;;;;11.53;3.80;;;;;;;;;;5032449;28;20507;-68
2021/07/25 04:30:59;;;;;;;12.40;4.17;;;;;;;;;;5029995;28;20026;-68
2021/07/25 04:33:30;;;;;;;16.90;3.90;;;;;;;;;;5032649;28;20079;-68
2021/07/25 04:35:57;;;;;;;10.10;3.70;;;;;;;;;;5042545;28;20163;-67
2021/07/25 04:38:24;;;;;;;18.50;4.47;;;;;;;;;;5020507;28;20041;-68
2021/07/25 04:40:56;;;;;;;12.37;4.10;;;;;;;;;;5012765;28;20036;-67
2021/07/25 04:43:28;;;;;;;13.60;4.37;;;;;;;;;;5026953;28;20014;-67
2021/07/25 04:46:09;;;;;;;16.80;4.80;;;;;;;;;;5030881;28;20032;-67
2021/07/25 04:48:39;;;;;;;14.60;3.87;;;;;;;;;;5031116;28;20021;-68
2021/07/25 04:51:07;;;;;;;30.03;4.27;;;;;;;;;;5043962;28;20034;-68
2021/07/25 04:53:41;;;;;;;13.97;3.23;;;;;;;;;;5033005;28;20036;-68
2021/07/25 04:56:09;;;;;;;19.48;3.63;;;;;;;;;;5033936;28;20532;-68
2021/07/25 04:58:41;;;;;;;15.63;4.03;;;;;;;;;;5029261;28;20136;-68
2021/07/25 05:01:13;;;;;;;11.57;3.87;;;;;;;;;;5029126;28;20037;-68
2021/07/25 05:03:40;;;;;;;16.33;4.17;;;;;;;;;;5031188;28;20068;-70
2021/07/25 05:06:09;;;;;;;16.53;3.53;;;;;;;;;;5050392;28;20029;-70
2021/07/25 05:08:36;;;;;;;15.80;4.70;;;;;;;;;;5054280;28;20024;-70
2021/07/25 05:11:06;;;;;;;20.50;4.10;;;;;;;;;;5040016;28;20120;-70
2021/07/25 05:13:35;;;;;;;22.90;5.30;;;;;;;;;;5035123;28;20018;-70
2021/07/25 05:16:10;;;;;;;26.87;5.37;;;;;;;;;;5035383;28;20507;-70
2021/07/25 05:18:40;;;;;;;17.77;4.68;;;;;;;;;;5035630;28;20025;-70
2021/07/25 05:21:15;;;;;;;10.87;4.10;;;;;;;;;;5030174;28;20029;-70
2021/07/25 05:23:47;;;;;;;15.47;4.73;;;;;;;;;;5040332;28;20029;-70
2021/07/25 05:26:14;;;;;;;10.67;3.97;;;;;;;;;;5049742;28;20025;-70
2021/07/25 05:28:44;;;;;;;18.57;4.67;;;;;;;;;;5049525;28;20394;-70
2021/07/25 05:31:11;;;;;;;12.87;4.97;;;;;;;;;;5043677;28;20034;-70
2021/07/25 05:33:38;;;;;;;17.47;4.33;;;;;;;;;;5035011;28;20044;-70
2021/07/25 05:36:05;;;;;;;10.40;3.83;;;;;;;;;;5035054;28;20053;-70
2021/07/25 05:38:31;;;;;;;15.57;3.60;;;;;;;;;;5049712;28;20039;-70
2021/07/25 05:40:58;;;;;;;18.90;4.33;;;;;;;;;;5034925;28;20033;-70
2021/07/25 05:43:25;;;;;;;14.40;3.53;;;;;;;;;;5044166;28;20029;-70
2021/07/25 05:45:52;;;;;;;12.30;3.73;;;;;;;;;;5049769;28;20546;-70
2021/07/25 05:48:19;;;;;;;12.17;5.10;;;;;;;;;;5049583;28;20037;-70
2021/07/25 05:50:46;;;;;;;12.50;4.87;;;;;;;;;;5049127;28;20071;-70
2021/07/25 05:53:13;;;;;;;25.90;4.40;;;;;;;;;;5054006;28;20032;-70
2021/07/25 05:55:40;;;;;;;15.87;4.07;;;;;;;;;;5053902;28;20484;-70
2021/07/25 05:58:06;;;;;;;11.10;3.80;;;;;;;;;;5034630;28;20064;-70
2021/07/25 06:00:33;;;;;;;18.27;4.97;;;;;;;;;;5033975;28;20072;-70
2021/07/25 06:03:01;;;;;;;15.30;4.00;;;;;;;;;;5034281;28;20103;-70
2021/07/25 06:05:45;;;;;;;13.10;4.60;;;;;;;;;;5028876;28;20038;-70
2021/07/25 06:08:12;;;;;;;17.33;4.10;;;;;;;;;;5039931;28;20029;-70
2021/07/25 06:10:43;;;;;;;12.67;4.23;;;;;;;;;;5034313;28;20033;-70
2021/07/25 06:13:10;;;;;;;16.57;4.73;;;;;;;;;;5028702;28;20401;-70
2021/07/25 06:15:38;;;;;;;9.67;3.77;;;;;;;;;;5033721;28;20034;-70
2021/07/25 06:18:06;;;;;;;13.90;3.63;;;;;;;;;;5034236;28;20026;-70
2021/07/25 06:20:33;;;;;;;7.57;3.20;;;;;;;;;;5050580;28;20028;-70
2021/07/25 06:23:01;;;;;;;11.03;4.23;;;;;;;;;;5054130;28;20029;-70
2021/07/25 06:25:32;;;;;;;11.97;4.67;;;;;;;;;;5037041;28;20490;-70
2021/07/25 06:28:01;;;;;;;13.67;4.80;;;;;;;;;;5046771;28;20029;-70
2021/07/25 06:30:28;;;;;;;15.57;4.57;;;;;;;;;;5048497;28;20029;-70
2021/07/25 06:32:55;;;;;;;20.53;4.50;;;;;;;;;;5048773;28;20021;-70
2021/07/25 06:35:24;;;;;;;10.67;3.50;;;;;;;;;;5048487;28;20072;-70
2021/07/25 06:37:51;;;;;;;15.83;3.63;;;;;;;;;;5052677;28;20112;-70
2021/07/25 06:40:18;;;;;;;14.83;4.53;;;;;;;;;;5053830;28;20036;-67
2021/07/25 06:42:45;;;;;;;11.50;3.90;;;;;;;;;;5037790;28;20026;-68
2021/07/25 06:45:12;;;;;;;11.80;4.23;;;;;;;;;;5033538;28;20033;-67
2021/07/25 06:47:38;;;;;;;11.27;3.83;;;;;;;;;;5033814;28;20017;-67
2021/07/25 06:50:05;;;;;;;14.80;4.73;;;;;;;;;;5029122;28;20061;-67
2021/07/25 06:52:32;;;;;;;11.93;4.03;;;;;;;;;;5028876;28;20021;-67
2021/07/25 06:54:59;;;;;;;17.50;4.90;;;;;;;;;;5028382;28;20384;-67
2021/07/25 06:57:26;;;;;;;17.13;4.27;;;;;;;;;;5037044;28;20032;-67
2021/07/25 06:59:53;;;;;;;10.83;3.70;;;;;;;;;;5032436;28;20032;-67
2021/07/25 07:02:19;;;;;;;11.03;4.17;;;;;;;;;;5033336;28;20053;-67
2021/07/25 07:04:46;;;;;;;12.93;4.30;;;;;;;;;;5033239;28;20044;-67
2021/07/25 07:07:13;;;;;;;13.57;4.87;;;;;;;;;;5033555;28;20053;-67
2021/07/25 07:09:40;;;;;;;15.57;3.40;;;;;;;;;;5033383;28;20083;-67
2021/07/25 07:12:07;;;;;;;15.07;4.50;;;;;;;;;;5037274;28;20021;-67
2021/07/25 07:14:33;;;;;;;17.37;5.73;;;;;;;;;;5048136;28;20024;-67
2021/07/25 07:17:00;;;;;;;13.10;3.90;;;;;;;;;;5048177;28;20021;-67
2021/07/25 07:19:27;;;;;;;15.33;4.23;;;;;;;;;;5047450;28;20037;-67
2021/07/25 07:21:53;;;;;;;14.33;4.97;;;;;;;;;;5051280;28;20051;-67
2021/07/25 07:24:20;;;;;;;11.50;3.47;;;;;;;;;;5052718;28;20048;-67
2021/07/25 07:26:47;;;;;;;13.60;3.93;;;;;;;;;;5044774;28;20025;-67
2021/07/25 07:29:14;;;;;;;12.47;3.67;;;;;;;;;;5032858;28;20029;-67
2021/07/25 07:31:41;;;;;;;9.53;3.60;;;;;;;;;;5032948;28;20104;-67
2021/07/25 07:34:08;;;;;;;10.23;3.53;;;;;;;;;;5029734;28;20043;-67
2021/07/25 07:36:34;;;;;;;10.77;3.50;;;;;;;;;;5027778;28;20368;-67
2021/07/25 07:39:01;;;;;;;9.97;3.53;;;;;;;;;;5027678;28;20503;-67
2021/07/25 07:41:28;;;;;;;9.53;3.67;;;;;;;;;;5027720;28;20392;-67
2021/07/25 07:43:54;;;;;;;11.23;3.40;;;;;;;;;;5030201;28;20522;-67
2021/07/25 07:46:21;;;;;;;10.10;3.17;;;;;;;;;;5051122;28;20090;-67
2021/07/25 07:48:48;;;;;;;11.80;3.07;;;;;;;;;;5052687;28;20028;-67
2021/07/25 07:51:15;;;;;;;11.57;4.93;;;;;;;;;;5052462;28;20029;-66
2021/07/25 07:53:42;;;;;;;14.90;4.87;;;;;;;;;;5052054;28;20037;-67
2021/07/25 07:56:09;;;;;;;8.07;2.93;;;;;;;;;;5047031;28;20028;-67
2021/07/25 07:58:36;;;;;;;9.43;3.37;;;;;;;;;;5028528;28;20025;-67
2021/07/25 08:01:02;;;;;;;8.00;3.10;;;;;;;;;;5027305;28;20076;-67
2021/07/25 08:03:29;;;;;;;11.63;3.83;;;;;;;;;;5027466;28;20093;-67
2021/07/25 08:05:56;;;;;;;6.47;2.33;;;;;;;;;;5029555;28;20029;-67
2021/07/25 08:08:22;;;;;;;12.83;3.50;;;;;;;;;;5049824;28;20036;-67
2021/07/25 08:10:49;;;;;;;9.40;3.33;;;;;;;;;;5052034;28;20059;-67
2021/07/25 08:13:16;;;;;;;9.63;3.37;;;;;;;;;;5051912;28;20044;-67
2021/07/25 08:15:43;;;;;;;14.43;4.03;;;;;;;;;;5047656;28;20057;-67
2021/07/25 08:18:10;;;;;;;8.83;3.10;;;;;;;;;;5030201;28;20479;-67
2021/07/25 08:20:36;;;;;;;9.23;3.60;;;;;;;;;;5027102;28;20084;-66
2021/07/25 08:23:03;;;;;;;13.67;4.57;;;;;;;;;;5027258;28;20025;-67
2021/07/25 08:25:30;;;;;;;10.83;3.77;;;;;;;;;;5026698;28;20094;-67
2021/07/25 08:27:57;;;;;;;12.00;3.53;;;;;;;;;;5028835;28;20036;-67
2021/07/25 08:30:24;;;;;;;10.87;3.63;;;;;;;;;;5032068;28;20033;-67
2021/07/25 08:32:51;;;;;;;10.53;4.23;;;;;;;;;;5032186;28;20492;-67
2021/07/25 08:35:18;;;;;;;9.80;3.20;;;;;;;;;;5032244;28;20021;-67
2021/07/25 08:37:45;;;;;;;11.97;3.50;;;;;;;;;;5032937;28;20431;-67
2021/07/25 08:40:15;;;;;;;10.80;3.40;;;;;;;;;;5030281;28;20087;-67
2021/07/25 08:42:49;;;;;;;11.37;3.40;;;;;;;;;;5042756;28;20515;-67
2021/07/25 08:45:17;;;;;;;8.93;3.83;;;;;;;;;;5046799;28;20120;-67
2021/07/25 08:47:44;;;;;;;14.37;3.60;;;;;;;;;;5041762;28;20511;-67
2021/07/25 08:50:11;;;;;;;12.90;3.00;;;;;;;;;;5028175;28;20030;-67
2021/07/25 08:52:39;;;;;;;8.63;2.97;;;;;;;;;;5047378;28;20021;-67
2021/07/25 08:55:10;;;;;;;8.70;3.70;;;;;;;;;;5051344;28;20025;-67
2021/07/25 08:57:38;;;;;;;10.00;3.17;;;;;;;;;;5035357;28;20028;-67
2021/07/25 09:00:10;;;;;;;8.23;3.13;;;;;;;;;;5031809;28;20022;-67
2021/07/25 09:02:37;;;;;;;10.90;4.00;;;;;;;;;;5030065;28;20034;-67
2021/07/25 09:05:05;;;;;;;8.90;3.13;;;;;;;;;;5026547;28;20132;-67
2021/07/25 09:07:32;;;;;;;9.00;3.00;;;;;;;;;;5041240;28;20124;-67
2021/07/25 09:10:00;;;;;;;10.27;2.93;;;;;;;;;;5046445;28;20056;-67
2021/07/25 09:12:28;;;;;;;6.23;2.93;;;;;;;;;;5047159;28;20029;-67
2021/07/25 09:15:02;;;;;;;7.73;2.60;;;;;;;;;;5051376;28;20108;-67
2021/07/25 09:17:29;;;;;;;5.18;2.50;;;;;;;;;;5036836;28;20036;-67
2021/07/25 09:20:13;;;;;;;7.90;2.77;;;;;;;;;;5043929;28;20510;-67
2021/07/25 09:22:54;;;;;;;7.40;2.90;;;;;;;;;;5051580;28;20025;-67
2021/07/25 09:25:23;;;;;;;9.80;2.70;;;;;;;;;;5048411;28;20124;-66
2021/07/25 09:28:09;;;;;;;7.83;2.97;;;;;;;;;;5029627;28;20033;-67
2021/07/25 09:30:36;;;;;;;8.80;2.97;;;;;;;;;;5025971;28;20487;-67
2021/07/25 09:33:20;;;;;;;6.13;2.37;;;;;;;;;;5026590;28;20033;-67
2021/07/25 09:35:47;;;;;;;7.40;2.60;;;;;;;;;;5030072;28;20032;-67
2021/07/25 09:38:14;;;;;;;5.10;2.40;;;;;;;;;;5050751;28;20082;-67
2021/07/25 09:40:43;;;;;;;7.27;2.70;;;;;;;;;;5054711;28;20434;-66
2021/07/25 09:43:15;;;;;;;8.47;3.40;;;;;;;;;;5054019;28;20551;-67
2021/07/25 09:45:54;;;;;;;7.40;3.00;;;;;;;;;;5054783;28;20037;-67
2021/07/25 09:48:27;;;;;;;9.10;2.67;;;;;;;;;;5010796;28;20066;-67
2021/07/25 09:50:56;;;;;;;7.60;2.83;;;;;;;;;;5018237;28;20036;-67
2021/07/25 09:53:23;;;;;;;8.90;3.40;;;;;;;;;;5049203;28;20360;-67
2021/07/25 09:55:52;;;;;;;10.60;4.23;;;;;;;;;;5049679;28;20025;-67
2021/07/25 09:58:32;;;;;;;9.87;4.37;;;;;;;;;;5033947;28;20026;-67
2021/07/25 10:00:59;;;;;;;7.90;3.43;;;;;;;;;;5034607;28;20108;-66
2021/07/25 10:03:32;;;;;;;8.80;3.20;;;;;;;;;;5034524;28;20042;-67
2021/07/25 10:05:59;;;;;;;7.10;2.97;;;;;;;;;;5034667;28;20022;-67
2021/07/25 10:08:26;;;;;;;6.60;2.90;;;;;;;;;;5035253;28;20056;-67
2021/07/25 10:10:54;;;;;;;10.77;3.53;;;;;;;;;;5029707;28;20454;-67
2021/07/25 10:13:23;;;;;;;7.13;3.23;;;;;;;;;;5045695;28;20029;-67
2021/07/25 10:15:58;;;;;;;5.20;2.83;;;;;;;;;;5049466;28;20028;-67
2021/07/25 10:18:26;;;;;;;14.30;4.73;;;;;;;;;;5048493;28;20029;-67
2021/07/25 10:20:56;;;;;;;6.03;3.20;;;;;;;;;;5053586;28;20025;-66
2021/07/25 10:23:43;;;;;;;11.80;3.27;;;;;;;;;;5037696;28;20029;-67
2021/07/25 10:26:10;;;;;;;13.03;3.37;;;;;;;;;;5034993;28;20036;-67
2021/07/25 10:28:37;;;;;;;6.67;3.00;;;;;;;;;;5053091;28;20041;-69
2021/07/25 10:31:06;;;;;;;7.07;3.13;;;;;;;;;;5053888;28;20535;-69
2021/07/25 10:33:36;;;;;;;8.27;3.00;;;;;;;;;;5031171;28;20271;-69
2021/07/25 10:36:07;;;;;;;10.13;2.90;;;;;;;;;;5028990;28;20037;-69
2021/07/25 10:38:35;;;;;;;6.37;3.37;;;;;;;;;;5028901;28;20029;-69
2021/07/25 10:41:03;;;;;;;10.53;4.60;;;;;;;;;;5028885;28;20497;-69
2021/07/25 10:43:30;;;;;;;9.37;4.17;;;;;;;;;;5049958;28;20029;-69
2021/07/25 10:46:16;;;;;;;10.77;4.27;;;;;;;;;;5053748;28;20017;-69
2021/07/25 10:49:09;;;;;;;7.63;3.03;;;;;;;;;;5053695;28;20079;-69
2021/07/25 10:51:37;;;;;;;6.53;3.60;;;;;;;;;;5043999;28;20266;-69
2021/07/25 10:54:22;;;;;;;8.43;3.87;;;;;;;;;;5036715;28;20085;-67
2021/07/25 10:57:02;;;;;;;8.93;3.25;;;;;;;;;;5048747;28;20041;-66
2021/07/25 10:59:50;;;;;;;7.90;3.30;;;;;;;;;;5047872;28;20025;-67
2021/07/25 11:02:22;;;;;;;12.63;4.13;;;;;;;;;;5041932;28;20056;-66
2021/07/25 11:04:49;;;;;;;9.13;4.30;;;;;;;;;;5031660;28;20041;-66
2021/07/25 11:07:25;;;;;;;9.73;4.37;;;;;;;;;;5033494;28;20028;-67
2021/07/25 11:10:02;;;;;;;8.40;3.67;;;;;;;;;;5033364;28;20491;-66
2021/07/25 11:12:47;;;;;;;6.07;3.30;;;;;;;;;;5040228;28;20025;-66
2021/07/25 11:15:32;;;;;;;9.98;4.05;;;;;;;;;;5053059;28;20258;-66
2021/07/25 11:17:59;;;;;;;6.22;3.03;;;;;;;;;;5048001;28;20040;-66
2021/07/25 11:20:35;;;;;;;8.73;3.37;;;;;;;;;;5047889;28;20052;-66
2021/07/25 11:23:03;;;;;;;8.23;3.60;;;;;;;;;;5035646;28;20282;-66
2021/07/25 11:25:33;;;;;;;5.77;3.20;;;;;;;;;;5036039;28;20293;-67
2021/07/25 11:28:00;;;;;;;9.83;4.00;;;;;;;;;;5053279;28;20297;-66
2021/07/25 11:30:45;;;;;;;10.60;4.53;;;;;;;;;;5052931;28;20021;-66
2021/07/25 11:33:30;;;;;;;5.70;2.70;;;;;;;;;;5039909;28;20353;-66
2021/07/25 11:35:58;;;;;;;8.90;3.47;;;;;;;;;;5033062;28;20057;-67
2021/07/25 11:38:27;;;;;;;6.40;3.70;;;;;;;;;;5031231;28;20499;-67
2021/07/25 11:40:54;;;;;;;7.70;3.03;;;;;;;;;;5027663;28;20273;-66
2021/07/25 11:43:21;;;;;;;10.20;3.20;;;;;;;;;;5040504;28;20277;-66
2021/07/25 11:45:48;;;;;;;8.00;3.27;;;;;;;;;;5047437;28;20048;-66
2021/07/25 11:48:21;;;;;;;10.53;3.73;;;;;;;;;;5048552;28;20341;-67
2021/07/25 11:50:48;;;;;;;8.03;3.20;;;;;;;;;;5052416;28;20624;-66
2021/07/25 11:53:15;;;;;;;8.93;3.87;;;;;;;;;;5039740;28;20274;-66
2021/07/25 11:55:42;;;;;;;7.77;3.13;;;;;;;;;;5033322;28;20107;-66
2021/07/25 11:58:12;;;;;;;7.27;3.50;;;;;;;;;;5046694;28;20276;-66
2021/07/25 12:00:39;;;;;;;8.87;3.37;;;;;;;;;;5050705;28;20250;-66
2021/07/25 12:03:05;;;;;;;6.07;2.53;;;;;;;;;;5034731;28;20275;-67
2021/07/25 12:05:32;;;;;;;8.93;3.40;;;;;;;;;;5027374;28;20289;-66
2021/07/25 12:08:12;;;;;;;9.40;2.93;;;;;;;;;;5027279;28;20346;-66
2021/07/25 12:10:38;;;;;;;10.33;3.30;;;;;;;;;;5028613;28;20266;-66
2021/07/25 12:13:06;;;;;;;6.37;3.33;;;;;;;;;;5042722;28;20270;-67
2021/07/25 12:15:33;;;;;;;19.20;4.10;;;;;;;;;;5051669;28;20316;-66
2021/07/25 12:18:00;;;;;;;7.63;4.07;;;;;;;;;;5049513;28;20292;-67
2021/07/25 12:20:29;;;;;;;6.67;3.57;;;;;;;;;;5032339;28;20259;-66
2021/07/25 12:23:00;;;;;;;9.83;3.60;;;;;;;;;;5030463;28;20313;-66
2021/07/25 12:25:30;;;;;;;7.83;3.07;;;;;;;;;;5026914;28;20302;-66
2021/07/25 12:28:02;;;;;;;9.37;2.97;;;;;;;;;;5028680;28;20259;-66
2021/07/25 12:30:39;;;;;;;34.73;4.23;;;;;;;;;;5046697;28;20800;-66
2021/07/25 12:33:06;;;;;;;6.37;3.07;;;;;;;;;;5045133;28;20621;-66
2021/07/25 12:35:34;;;;;;;8.33;2.77;;;;;;;;;;5032113;28;20263;-66
2021/07/25 12:38:01;;;;;;;10.87;3.83;;;;;;;;;;5032055;28;20757;-66
2021/07/25 12:40:32;;;;;;;10.33;3.40;;;;;;;;;;5032110;28;20286;-66
2021/07/25 12:43:02;;;;;;;6.00;2.73;;;;;;;;;;5032806;28;20321;-67
2021/07/25 12:45:35;;;;;;;7.17;3.00;;;;;;;;;;5049014;28;21067;-66
2021/07/25 12:48:20;;;;;;;7.47;3.13;;;;;;;;;;5046756;28;20360;-66
2021/07/25 12:51:00;;;;;;;7.72;2.97;;;;;;;;;;5046064;28;20775;-66
2021/07/25 12:53:30;;;;;;;6.97;3.30;;;;;;;;;;5027663;28;20357;-66
2021/07/25 12:55:58;;;;;;;8.37;4.00;;;;;;;;;;5029974;28;20330;-66
2021/07/25 12:58:27;;;;;;;10.80;3.40;;;;;;;;;;5031940;28;20263;-66
2021/07/25 13:06:10;;;;;;;8.00;3.63;;;;;;;;;;5051481;28;20782;-66
2021/07/25 13:08:37;;;;;;;7.93;3.50;;;;;;;;;;5027500;28;20108;-66
2021/07/25 13:11:03;;;;;;;9.13;3.90;;;;;;;;;;5026605;28;20259;-66
2021/07/25 13:13:30;;;;;;;8.23;3.50;;;;;;;;;;5027803;28;20270;-66
2021/07/25 13:15:57;;;;;;;6.83;3.20;;;;;;;;;;5030397;28;20026;-67
2021/07/25 13:18:24;;;;;;;6.50;3.20;;;;;;;;;;5050922;28;20843;-66
2021/07/25 13:20:51;;;;;;;6.67;3.37;;;;;;;;;;5055685;28;20620;-66
2021/07/25 13:23:17;;;;;;;9.43;3.33;;;;;;;;;;5055658;28;20043;-66
2021/07/25 13:25:44;;;;;;;15.07;4.10;;;;;;;;;;5054973;28;20115;-66
2021/07/25 13:28:11;;;;;;;8.63;3.33;;;;;;;;;;5040933;28;20029;-66
2021/07/25 13:30:38;;;;;;;7.87;3.67;;;;;;;;;;5039787;28;20029;-67
2021/07/25 13:33:05;;;;;;;12.40;5.87;;;;;;;;;;5050252;28;20438;-66
2021/07/25 13:35:31;;;;;;;7.33;3.70;;;;;;;;;;5032384;28;20029;-66
2021/07/25 13:37:58;;;;;;;6.33;3.40;;;;;;;;;;5030232;28;20025;-67
2021/07/25 13:40:26;;;;;;;11.17;3.97;;;;;;;;;;5039110;28;20032;-67
2021/07/25 13:42:53;;;;;;;12.53;4.00;;;;;;;;;;5055151;28;20025;-66
2021/07/25 13:45:20;;;;;;;15.10;5.03;;;;;;;;;;5054195;28;20044;-67
2021/07/25 13:47:47;;;;;;;15.20;4.83;;;;;;;;;;5054258;28;20539;-67
2021/07/25 13:50:13;;;;;;;8.97;3.90;;;;;;;;;;5049984;28;20132;-67
2021/07/25 13:52:41;;;;;;;8.80;4.00;;;;;;;;;;5031679;28;20038;-67
2021/07/25 13:55:08;;;;;;;17.50;3.77;;;;;;;;;;5029777;28;20029;-69
2021/07/25 13:57:35;;;;;;;17.03;4.20;;;;;;;;;;5029693;28;20558;-69
2021/07/25 14:00:01;;;;;;;9.87;3.53;;;;;;;;;;5031959;28;20411;-69
2021/07/25 14:02:28;;;;;;;16.47;4.10;;;;;;;;;;5048970;28;20395;-70
2021/07/25 14:04:55;;;;;;;11.03;4.10;;;;;;;;;;5034735;28;20437;-69
2021/07/25 14:07:22;;;;;;;12.50;3.37;;;;;;;;;;5038778;28;20074;-69
2021/07/25 14:09:49;;;;;;;9.70;3.97;;;;;;;;;;5054688;28;20027;-69
2021/07/25 14:12:15;;;;;;;16.57;4.10;;;;;;;;;;5036852;28;20030;-69
2021/07/25 14:14:42;;;;;;;15.77;4.03;;;;;;;;;;5031691;28;20021;-69
2021/07/25 14:17:09;;;;;;;14.37;3.73;;;;;;;;;;5031520;28;20033;-69
2021/07/25 14:19:36;;;;;;;11.10;4.00;;;;;;;;;;5048736;28;20056;-70
2021/07/25 14:22:05;;;;;;;11.47;3.13;;;;;;;;;;5049415;28;20024;-69
2021/07/25 14:24:32;;;;;;;11.40;3.53;;;;;;;;;;5050334;28;20051;-69
2021/07/25 14:27:00;;;;;;;16.47;4.23;;;;;;;;;;5053130;28;20081;-69
2021/07/25 14:29:26;;;;;;;13.53;4.10;;;;;;;;;;5034283;28;20088;-70
2021/07/25 14:31:53;;;;;;;11.40;4.33;;;;;;;;;;5034121;28;20503;-70
2021/07/25 14:34:20;;;;;;;15.10;5.17;;;;;;;;;;5045794;28;20483;-71
2021/07/25 14:36:47;;;;;;;14.57;3.87;;;;;;;;;;5051212;28;20476;-70
2021/07/25 14:39:13;;;;;;;13.13;5.87;;;;;;;;;;5029909;28;20037;-70
2021/07/25 14:41:40;;;;;;;17.60;4.10;;;;;;;;;;5028976;28;20018;-70
2021/07/25 14:44:07;;;;;;;10.03;4.10;;;;;;;;;;5036882;28;20140;-70
2021/07/25 14:46:34;;;;;;;14.83;4.77;;;;;;;;;;5030508;28;20552;-70
2021/07/25 14:49:02;;;;;;;11.70;3.90;;;;;;;;;;5050175;28;20029;-70
2021/07/25 14:51:29;;;;;;;8.30;3.07;;;;;;;;;;5053491;28;20025;-70